Time;durP1;ratioP1;P1;durP2;ratioP2;P2;SDS_P1;SDS_P2;PMS_P1;PMS_P2;Temp;Humidity;BMP_temperature;BMP_pressure;BME280_temperature;BME280_humidity;BME280_pressure;Samples;Min_cycle;Max_cycle;Signal;HPM_P1;HPM_P2
2022/10/09 00:01:31;;;;;;;3.70;1.57;;;;;;;13.58;90.81;96261.03;4322856;32;20260;-63
2022/10/09 00:04:04;;;;;;;3.17;1.30;;;;;;;13.61;93.23;96255.94;4312545;32;20239;-63
2022/10/09 00:06:32;;;;;;;0.97;0.93;;;;;;;13.56;91.86;96261.31;4335898;32;20357;-63
2022/10/09 00:09:00;;;;;;;2.60;1.53;;;;;;;13.55;92.14;96257.06;4320399;32;20206;-63
2022/10/09 00:11:45;;;;;;;0.80;0.63;;;;;;;13.34;90.84;96263.75;4312505;33;20220;-64
2022/10/09 00:14:11;;;;;;;1.47;1.20;;;;;;;13.44;91.24;96263.63;4320397;33;20197;-64
2022/10/09 00:16:36;;;;;;;1.23;0.90;;;;;;;13.60;91.88;96249.00;4314189;33;20211;-65
2022/10/09 00:19:01;;;;;;;4.53;1.23;;;;;;;13.58;89.30;96251.16;4329313;33;20217;-62
2022/10/09 00:21:41;;;;;;;1.70;1.57;;;;;;;13.42;89.91;96257.81;4349556;32;20288;-62
2022/10/09 00:24:11;;;;;;;0.60;0.60;;;;;;;13.45;90.44;96256.44;4331120;32;20181;-64
2022/10/09 00:26:37;;;;;;;0.70;0.70;;;;;;;13.34;87.06;96253.09;4338594;33;20186;-62
2022/10/09 00:29:02;;;;;;;1.87;1.53;;;;;;;13.52;90.87;96244.31;4335356;32;20181;-62
2022/10/09 00:31:28;;;;;;;1.37;1.37;;;;;;;13.41;91.03;96242.87;4301830;33;20231;-62
2022/10/09 00:33:54;;;;;;;0.90;0.90;;;;;;;13.36;92.00;96245.63;4328918;33;20189;-62
2022/10/09 00:36:24;;;;;;;3.00;1.50;;;;;;;13.33;92.01;96243.53;4339193;32;20231;-62
2022/10/09 00:38:52;;;;;;;1.10;1.00;;;;;;;13.52;91.14;96244.31;4336172;33;20217;-62
2022/10/09 00:41:25;;;;;;;4.93;1.30;;;;;;;13.58;90.78;96235.16;4321336;32;20245;-63
2022/10/09 00:43:56;;;;;;;4.03;1.27;;;;;;;13.27;89.61;96236.69;4340032;32;20263;-62
2022/10/09 00:46:32;;;;;;;1.03;0.50;;;;;;;13.22;86.37;96234.09;4346780;32;20274;-62
2022/10/09 00:49:09;;;;;;;1.03;0.90;;;;;;;13.28;90.21;96235.63;4320249;32;20246;-62
2022/10/09 00:51:35;;;;;;;0.50;0.50;;;;;;;13.26;91.73;96225.25;4332061;32;20190;-62
2022/10/09 00:54:06;;;;;;;0.97;0.97;;;;;;;13.26;92.28;96227.13;4325451;32;20215;-62
2022/10/09 00:56:33;;;;;;;2.57;0.80;;;;;;;13.19;89.98;96234.66;4311033;32;20263;-62
2022/10/09 00:59:00;;;;;;;0.90;0.90;;;;;;;13.30;91.13;96231.56;4340996;32;20304;-63
2022/10/09 01:01:27;;;;;;;1.30;1.30;;;;;;;13.22;87.12;96221.56;4334518;32;20186;-62
2022/10/09 01:03:52;;;;;;;1.20;1.20;;;;;;;13.01;89.10;96229.00;4336870;32;20256;-63
2022/10/09 01:06:45;;;;;;;1.37;1.27;;;;;;;12.89;90.00;96217.94;4329408;32;20194;-62
2022/10/09 01:09:17;;;;;;;1.10;1.10;;;;;;;12.98;90.98;96205.59;4293739;33;20186;-62
2022/10/09 01:12:01;;;;;;;0.80;0.80;;;;;;;12.87;91.65;96206.03;4332647;32;20240;-62
2022/10/09 01:14:31;;;;;;;2.53;1.40;;;;;;;12.86;92.00;96209.75;4328820;32;20280;-63
2022/10/09 01:17:24;;;;;;;1.27;1.17;;;;;;;12.61;90.70;96216.97;4327929;32;20299;-62
2022/10/09 01:20:06;;;;;;;1.13;1.13;;;;;;;12.85;94.28;96208.19;4319839;32;20281;-62
2022/10/09 01:23:14;;;;;;;1.00;1.00;;;;;;;12.89;93.48;96207.28;4342789;32;20200;-62
2022/10/09 01:26:17;;;;;;;0.93;0.93;;;;;;;12.98;93.17;96200.28;4317116;32;20205;-63
2022/10/09 01:28:48;;;;;;;4.17;1.67;;;;;;;12.95;92.27;96200.84;4339089;32;20182;-62
2022/10/09 01:31:17;;;;;;;1.17;1.13;;;;;;;12.87;90.46;96198.81;4313555;32;20248;-63
2022/10/09 01:33:45;;;;;;;1.63;1.53;;;;;;;12.98;93.23;96200.28;4323001;32;20245;-63
2022/10/09 01:36:11;;;;;;;2.20;1.17;;;;;;;13.17;91.90;96194.97;4335655;32;20237;-63
2022/10/09 01:38:39;;;;;;;2.97;1.90;;;;;;;13.05;91.43;96195.38;4339703;32;20244;-63
2022/10/09 01:41:06;;;;;;;0.90;0.90;;;;;;;13.02;93.43;96187.16;4327249;32;20196;-62
2022/10/09 01:43:34;;;;;;;1.40;1.30;;;;;;;13.12;92.00;96191.56;4310514;32;20272;-62
2022/10/09 01:46:26;;;;;;;9.63;1.63;;;;;;;13.09;92.79;96183.06;4341631;32;20200;-62
2022/10/09 01:49:20;;;;;;;0.87;0.87;;;;;;;13.21;92.08;96189.87;4320654;32;20301;-62
2022/10/09 01:52:02;;;;;;;1.50;1.40;;;;;;;13.08;92.47;96186.81;4343365;32;20249;-62
2022/10/09 01:54:47;;;;;;;1.80;1.30;;;;;;;13.05;89.91;96182.06;4338415;32;20274;-62
2022/10/09 01:57:20;;;;;;;2.07;0.73;;;;;;;12.81;92.72;96183.97;4322510;32;20196;-62
2022/10/09 01:59:52;;;;;;;1.33;1.33;;;;;;;13.14;92.77;96181.41;4344465;32;20190;-62
2022/10/09 02:02:19;;;;;;;1.57;1.47;;;;;;;13.05;91.77;96168.75;4331343;32;20204;-62
2022/10/09 02:04:48;;;;;;;1.83;1.53;;;;;;;13.23;92.11;96174.41;4290095;33;20198;-62
2022/10/09 02:07:17;;;;;;;2.60;2.07;;;;;;;13.07;91.00;96169.25;4345781;32;20192;-63
2022/10/09 02:09:43;;;;;;;0.70;0.70;;;;;;;12.85;89.30;96163.69;4317890;32;20178;-62
2022/10/09 02:12:13;;;;;;;1.13;1.13;;;;;;;13.02;90.97;96164.00;4304621;32;20194;-62
2022/10/09 02:14:38;;;;;;;1.27;1.27;;;;;;;12.95;92.31;96160.09;4328662;32;20193;-63
2022/10/09 02:17:13;;;;;;;0.83;0.83;;;;;;;12.87;90.46;96150.88;4299167;32;20226;-62
2022/10/09 02:20:13;;;;;;;3.03;1.10;;;;;;;13.04;91.66;96151.19;4318565;32;20190;-63
2022/10/09 02:22:41;;;;;;;2.33;1.67;;;;;;;12.88;91.08;96149.81;4288162;33;20208;-62
2022/10/09 02:25:07;;;;;;;0.83;0.83;;;;;;;12.91;91.93;96143.87;4322466;32;20245;-62
2022/10/09 02:27:34;;;;;;;0.90;0.90;;;;;;;12.87;90.92;96136.78;4266237;33;20201;-62
2022/10/09 02:30:01;;;;;;;1.07;1.07;;;;;;;12.84;91.96;96134.69;4326590;32;20201;-62
2022/10/09 02:32:28;;;;;;;2.03;1.43;;;;;;;12.88;92.72;96136.50;4293899;33;20296;-62
2022/10/09 02:34:58;;;;;;;1.83;1.73;;;;;;;12.83;92.15;96141.88;4332558;32;20205;-62
2022/10/09 02:37:26;;;;;;;2.03;1.63;;;;;;;12.86;92.16;96129.87;4320367;32;20207;-62
2022/10/09 02:39:51;;;;;;;2.07;1.87;;;;;;;12.70;92.00;96137.25;4317688;32;20238;-62
2022/10/09 02:42:17;;;;;;;1.17;1.17;;;;;;;12.65;91.83;96140.00;4328969;32;20185;-62
2022/10/09 02:44:43;;;;;;;1.10;1.10;;;;;;;12.84;92.50;96137.34;4331936;32;20189;-62
2022/10/09 02:47:09;;;;;;;1.17;1.17;;;;;;;12.78;93.05;96133.97;4313331;32;20181;-63
2022/10/09 02:49:34;;;;;;;1.43;1.33;;;;;;;12.55;92.28;96140.91;4333000;32;20284;-62
2022/10/09 02:52:01;;;;;;;0.70;0.70;;;;;;;12.34;91.06;96145.69;4329123;32;20198;-62
2022/10/09 02:54:26;;;;;;;0.83;0.83;;;;;;;12.53;93.78;96145.72;4313428;32;20189;-62
2022/10/09 02:56:52;;;;;;;1.40;1.40;;;;;;;12.46;92.77;96141.84;4323198;32;20204;-62
2022/10/09 02:59:18;;;;;;;3.30;2.17;;;;;;;12.61;93.36;96138.97;4327856;32;20192;-63
2022/10/09 03:01:43;;;;;;;0.87;0.87;;;;;;;12.51;92.49;96139.88;4317028;32;20201;-62
2022/10/09 03:04:09;;;;;;;1.27;1.27;;;;;;;12.78;93.57;96139.28;4323419;32;20198;-62
2022/10/09 03:06:38;;;;;;;1.50;1.40;;;;;;;12.76;92.98;96136.13;4311725;33;20220;-62
2022/10/09 03:09:04;;;;;;;2.10;2.00;;;;;;;12.37;91.91;96134.47;4313993;32;20181;-62
2022/10/09 03:11:29;;;;;;;1.50;1.40;;;;;;;12.77;93.50;96126.25;4332255;32;20264;-62
2022/10/09 03:13:55;;;;;;;1.27;1.27;;;;;;;12.73;93.67;96126.03;4303593;33;20230;-62
2022/10/09 03:16:24;;;;;;;1.67;1.57;;;;;;;12.67;91.70;96132.53;4328534;32;20228;-62
2022/10/09 03:18:52;;;;;;;0.90;0.87;;;;;;;12.59;92.99;96135.81;4321068;32;20257;-62
2022/10/09 03:21:20;;;;;;;1.10;1.10;;;;;;;12.45;92.77;96130.41;4291574;33;20190;-62
2022/10/09 03:23:47;;;;;;;0.50;0.50;;;;;;;12.69;93.03;96119.69;4326250;32;20193;-62
2022/10/09 03:26:17;;;;;;;1.40;1.40;;;;;;;12.63;90.93;96112.88;4335983;32;20193;-62
2022/10/09 03:28:47;;;;;;;1.30;1.30;;;;;;;12.73;91.87;96115.38;4341259;32;20185;-62
2022/10/09 03:31:16;;;;;;;2.43;1.30;;;;;;;12.59;91.62;96109.19;4307607;32;20241;-62
2022/10/09 03:33:43;;;;;;;0.83;0.83;;;;;;;12.16;91.29;96111.84;4317083;32;20244;-62
2022/10/09 03:36:10;;;;;;;1.57;1.47;;;;;;;12.29;92.72;96113.78;4320221;32;20188;-62
2022/10/09 03:38:37;;;;;;;1.13;0.93;;;;;;;12.20;91.14;96112.06;4341210;32;20189;-62
2022/10/09 03:41:05;;;;;;;0.93;0.93;;;;;;;12.24;93.88;96119.19;4282937;33;20194;-64
2022/10/09 03:43:31;;;;;;;0.97;0.97;;;;;;;12.27;92.57;96115.16;4340676;32;20194;-64
2022/10/09 03:45:57;;;;;;;0.70;0.70;;;;;;;12.20;91.04;96112.84;4304644;33;20363;-64
2022/10/09 03:48:25;;;;;;;1.90;1.23;;;;;;;12.30;93.08;96112.72;4322417;32;20189;-64
2022/10/09 03:50:50;;;;;;;1.50;1.37;;;;;;;12.30;91.17;96107.41;4331419;32;20189;-62
2022/10/09 03:53:15;;;;;;;1.30;1.20;;;;;;;12.23;91.94;96112.28;4328325;32;20200;-62
2022/10/09 03:55:42;;;;;;;0.97;0.90;;;;;;;12.27;92.60;96118.59;4331247;32;20185;-62
2022/10/09 03:58:10;;;;;;;1.07;1.07;;;;;;;12.29;93.08;96115.66;4334308;32;20276;-62
2022/10/09 04:00:36;;;;;;;3.40;1.70;;;;;;;12.17;91.52;96109.97;4335728;32;20185;-62
2022/10/09 04:03:06;;;;;;;1.40;1.33;;;;;;;12.08;92.27;96119.63;4350207;32;20181;-62
2022/10/09 04:05:33;;;;;;;1.17;1.17;;;;;;;12.36;94.96;96116.91;4334184;32;20215;-62
2022/10/09 04:07:59;;;;;;;1.13;1.13;;;;;;;12.21;92.13;96117.09;4340702;32;20208;-62
2022/10/09 04:10:25;;;;;;;1.03;1.03;;;;;;;12.14;92.67;96113.97;4328875;32;20248;-62
2022/10/09 04:12:51;;;;;;;1.43;1.33;;;;;;;12.01;92.61;96112.00;4316919;33;20233;-62
2022/10/09 04:15:18;;;;;;;1.10;1.10;;;;;;;12.04;92.44;96108.78;4312698;32;20264;-62
2022/10/09 04:17:45;;;;;;;0.73;0.73;;;;;;;12.11;94.01;96111.88;4304582;33;20182;-62
2022/10/09 04:20:11;;;;;;;1.33;1.33;;;;;;;12.13;93.08;96116.91;4312879;32;20214;-63
2022/10/09 04:22:39;;;;;;;1.40;1.37;;;;;;;12.14;92.08;96108.66;4313118;32;20173;-65
2022/10/09 04:25:06;;;;;;;1.30;1.30;;;;;;;12.31;92.66;96103.66;4321950;33;20203;-62
2022/10/09 04:27:32;;;;;;;1.53;1.47;;;;;;;12.35;91.21;96099.37;4310438;33;20175;-62
2022/10/09 04:29:58;;;;;;;0.90;0.90;;;;;;;12.12;91.04;96105.50;4301364;33;20262;-62
2022/10/09 04:32:24;;;;;;;0.93;0.93;;;;;;;12.17;91.77;96108.09;4325741;32;20190;-62
2022/10/09 04:34:50;;;;;;;0.77;0.77;;;;;;;12.38;92.62;96103.34;4306008;32;20197;-62
2022/10/09 04:37:15;;;;;;;0.87;0.87;;;;;;;12.34;92.28;96112.94;4313290;33;20201;-62
2022/10/09 04:39:41;;;;;;;0.93;0.77;;;;;;;12.30;90.18;96115.38;4323296;32;20182;-62
2022/10/09 04:42:09;;;;;;;1.20;1.17;;;;;;;12.07;90.62;96099.41;4323905;32;20288;-63
2022/10/09 04:44:35;;;;;;;0.67;0.67;;;;;;;12.16;91.12;96111.03;4313124;32;20194;-62
2022/10/09 04:47:01;;;;;;;0.90;0.90;;;;;;;12.04;90.76;96106.13;4319392;32;20227;-62
2022/10/09 04:49:30;;;;;;;0.70;0.70;;;;;;;12.09;90.22;96107.91;4317098;32;20272;-62
2022/10/09 04:51:57;;;;;;;1.33;1.23;;;;;;;12.28;91.67;96104.22;4316439;32;20205;-62
2022/10/09 04:54:23;;;;;;;0.93;0.93;;;;;;;12.02;89.39;96111.72;4305542;33;20197;-62
2022/10/09 04:56:48;;;;;;;0.60;0.60;;;;;;;12.06;89.87;96103.94;4294140;33;20249;-62
2022/10/09 04:59:14;;;;;;;0.70;0.70;;;;;;;12.33;90.19;96098.06;4328500;32;20190;-62
2022/10/09 05:01:40;;;;;;;0.97;0.97;;;;;;;12.22;91.03;96089.44;4322205;33;20189;-64
2022/10/09 05:04:07;;;;;;;7.83;1.63;;;;;;;12.03;90.62;96094.69;4324133;32;20265;-62
2022/10/09 05:06:32;;;;;;;0.63;0.63;;;;;;;12.00;92.12;96092.59;4321570;33;20214;-62
2022/10/09 05:08:58;;;;;;;0.97;0.97;;;;;;;12.16;90.39;96093.22;4329236;32;20227;-62
2022/10/09 05:11:24;;;;;;;0.77;0.77;;;;;;;12.19;90.51;96091.84;4348487;32;20239;-62
2022/10/09 05:13:52;;;;;;;1.40;1.17;;;;;;;11.97;89.87;96092.38;4358078;32;20188;-62
2022/10/09 05:16:21;;;;;;;0.67;0.50;;;;;;;12.13;89.00;96091.13;4351774;32;20200;-62
2022/10/09 05:18:48;;;;;;;0.97;0.97;;;;;;;11.98;90.30;96088.63;4356713;32;20212;-62
2022/10/09 05:21:14;;;;;;;2.27;1.43;;;;;;;11.66;90.92;96082.00;4357902;32;20224;-62
2022/10/09 05:23:40;;;;;;;0.67;0.67;;;;;;;11.81;90.64;96089.09;4344377;32;20358;-62
2022/10/09 05:26:08;;;;;;;2.53;1.23;;;;;;;11.84;89.76;96087.72;4358828;32;20196;-62
2022/10/09 05:28:34;;;;;;;0.67;0.67;;;;;;;12.04;89.25;96095.50;4355866;32;20208;-62
2022/10/09 05:31:02;;;;;;;0.80;0.80;;;;;;;11.89;88.73;96095.62;4344221;32;20207;-62
2022/10/09 05:33:28;;;;;;;1.07;1.03;;;;;;;11.79;88.70;96090.44;4360302;32;20276;-62
2022/10/09 05:35:56;;;;;;;1.57;1.20;;;;;;;11.74;89.41;96090.44;4350535;32;20207;-62
2022/10/09 05:38:22;;;;;;;1.37;1.37;;;;;;;11.64;91.38;96084.16;4348523;32;20199;-62
2022/10/09 05:40:58;;;;;;;0.50;0.50;;;;;;;11.67;89.35;96088.09;4360951;32;20197;-62
2022/10/09 05:43:25;;;;;;;0.57;0.57;;;;;;;11.97;90.85;96082.53;4346631;32;20207;-62
2022/10/09 05:45:51;;;;;;;1.43;1.40;;;;;;;11.78;90.58;96089.66;4358220;32;20237;-62
2022/10/09 05:48:17;;;;;;;1.43;1.43;;;;;;;12.01;90.74;96091.53;4344294;32;20200;-62
2022/10/09 05:50:42;;;;;;;0.40;0.40;;;;;;;11.68;90.13;96084.37;4345399;32;20196;-62
2022/10/09 05:53:08;;;;;;;3.80;1.50;;;;;;;11.66;91.58;96092.63;4342302;32;20223;-63
2022/10/09 05:55:33;;;;;;;0.77;0.77;;;;;;;11.77;89.71;96085.41;4344142;32;20222;-62
2022/10/09 05:57:58;;;;;;;2.23;1.70;;;;;;;11.94;91.28;96082.28;4360050;32;20206;-62
2022/10/09 06:00:24;;;;;;;3.93;2.10;;;;;;;11.89;89.97;96080.47;4345899;32;20188;-62
2022/10/09 06:02:49;;;;;;;1.00;1.00;;;;;;;11.79;89.59;96082.47;4358934;32;20181;-62
2022/10/09 06:05:15;;;;;;;20.97;1.87;;;;;;;11.73;91.92;96087.00;4346995;32;20189;-62
2022/10/09 06:07:40;;;;;;;1.23;1.20;;;;;;;11.77;91.81;96081.94;4345388;32;20242;-62
2022/10/09 06:10:06;;;;;;;0.70;0.70;;;;;;;11.55;90.37;96083.19;4343724;32;20181;-62
2022/10/09 06:12:31;;;;;;;4.27;0.53;;;;;;;11.38;88.55;96090.78;4352327;32;20192;-62
2022/10/09 06:14:57;;;;;;;0.47;0.47;;;;;;;11.40;91.67;96086.00;4359994;32;20280;-62
2022/10/09 06:17:22;;;;;;;1.23;1.23;;;;;;;11.56;92.67;96092.75;4346566;32;20251;-62
2022/10/09 06:19:47;;;;;;;0.90;0.90;;;;;;;11.51;92.49;96084.03;4356343;32;20230;-62
2022/10/09 06:22:13;;;;;;;1.33;1.07;;;;;;;11.60;90.93;96083.16;4345691;32;20208;-62
2022/10/09 06:24:38;;;;;;;3.73;1.43;;;;;;;11.37;88.91;96078.56;4358321;32;20219;-62
2022/10/09 06:27:04;;;;;;;1.57;1.47;;;;;;;10.97;90.06;96083.13;4347753;32;20203;-62
2022/10/09 06:29:29;;;;;;;1.13;1.13;;;;;;;10.95;90.58;96087.12;4355682;32;20224;-62
2022/10/09 06:31:55;;;;;;;0.97;0.93;;;;;;;11.21;95.35;96085.88;4346290;32;20200;-62
2022/10/09 06:34:20;;;;;;;2.87;1.10;;;;;;;11.28;93.47;96091.66;4354164;32;20201;-62
2022/10/09 06:36:45;;;;;;;0.93;0.93;;;;;;;11.38;92.78;96096.09;4341502;32;20181;-62
2022/10/09 06:39:11;;;;;;;0.80;0.80;;;;;;;11.21;91.41;96095.72;4340793;32;20220;-62
2022/10/09 06:41:36;;;;;;;0.83;0.83;;;;;;;11.25;91.80;96102.03;4362222;32;20188;-62
2022/10/09 06:44:05;;;;;;;0.77;0.77;;;;;;;11.24;91.78;96106.53;4340088;32;20243;-62
2022/10/09 06:46:34;;;;;;;1.13;1.13;;;;;;;11.31;94.34;96101.72;4359736;32;20253;-62
2022/10/09 06:49:00;;;;;;;0.83;0.83;;;;;;;11.50;93.84;96107.13;4342053;32;20201;-62
2022/10/09 06:51:29;;;;;;;1.13;1.13;;;;;;;11.35;90.77;96099.31;4346512;32;20250;-62
2022/10/09 06:53:57;;;;;;;0.87;0.87;;;;;;;11.15;91.03;96110.09;4352622;32;20211;-62
2022/10/09 06:56:25;;;;;;;1.63;1.53;;;;;;;11.12;89.83;96102.66;4346565;32;20289;-62
2022/10/09 06:58:51;;;;;;;2.83;1.40;;;;;;;11.00;89.21;96103.81;4345853;32;20222;-62
2022/10/09 07:01:19;;;;;;;0.87;0.87;;;;;;;10.87;90.81;96107.09;4358999;32;20204;-62
2022/10/09 07:03:47;;;;;;;1.10;1.10;;;;;;;11.13;94.52;96098.94;4347045;32;20238;-62
2022/10/09 07:06:20;;;;;;;1.70;1.60;;;;;;;11.47;94.88;96104.25;4359284;32;20209;-62
2022/10/09 07:08:48;;;;;;;1.27;1.27;;;;;;;11.67;93.68;96101.41;4352725;32;20192;-62
2022/10/09 07:11:20;;;;;;;0.60;0.60;;;;;;;11.71;91.77;96097.91;4345640;32;20207;-62
2022/10/09 07:13:46;;;;;;;1.10;1.10;;;;;;;11.69;91.48;96105.38;4346449;32;20198;-62
2022/10/09 07:16:12;;;;;;;1.33;1.33;;;;;;;11.80;92.17;96113.28;4345705;32;20200;-62
2022/10/09 07:18:38;;;;;;;0.63;0.63;;;;;;;11.86;92.52;96106.81;4357181;32;20181;-62
2022/10/09 07:21:06;;;;;;;0.97;0.97;;;;;;;11.53;90.70;96108.44;4357109;32;20203;-62
2022/10/09 07:23:32;;;;;;;1.47;1.37;;;;;;;11.79;93.24;96106.37;4358565;32;20254;-62
2022/10/09 07:25:58;;;;;;;0.73;0.73;;;;;;;11.65;91.72;96112.31;4354247;32;20264;-62
2022/10/09 07:28:25;;;;;;;1.37;1.00;;;;;;;11.90;93.13;96111.31;4358535;32;20193;-62
2022/10/09 07:30:52;;;;;;;0.83;0.83;;;;;;;12.01;92.88;96117.31;4354816;32;20193;-62
2022/10/09 07:33:19;;;;;;;1.30;1.20;;;;;;;11.87;93.57;96116.38;4325901;32;20193;-62
2022/10/09 07:35:59;;;;;;;1.07;1.07;;;;;;;11.94;93.14;96108.88;4329448;32;20189;-62
2022/10/09 07:38:26;;;;;;;0.80;0.80;;;;;;;12.08;92.82;96112.44;4335936;32;20247;-62
2022/10/09 07:40:52;;;;;;;0.90;0.90;;;;;;;12.19;92.72;96107.81;4340564;32;20233;-62
2022/10/09 07:43:19;;;;;;;0.83;0.83;;;;;;;12.23;91.96;96114.94;4320508;32;20190;-62
2022/10/09 07:45:48;;;;;;;1.60;1.50;;;;;;;12.16;90.71;96111.84;4327010;32;20206;-62
2022/10/09 07:48:13;;;;;;;1.03;0.83;;;;;;;12.10;91.30;96112.94;4347126;32;20189;-62
2022/10/09 07:50:40;;;;;;;3.20;2.90;;;;;;;12.20;91.99;96102.22;4358645;32;20237;-62
2022/10/09 07:53:07;;;;;;;1.73;1.63;;;;;;;11.99;88.75;96106.97;4348072;32;20189;-62
2022/10/09 07:55:35;;;;;;;2.00;1.90;;;;;;;12.06;91.02;96109.28;4315418;32;20205;-62
2022/10/09 07:58:01;;;;;;;4.83;1.53;;;;;;;12.29;94.39;96105.81;4332404;32;20193;-62
2022/10/09 08:00:27;;;;;;;1.10;1.10;;;;;;;12.34;93.43;96111.09;4338338;32;20294;-62
2022/10/09 08:02:53;;;;;;;0.83;0.83;;;;;;;12.28;91.46;96106.09;4337400;32;20307;-61
2022/10/09 08:05:18;;;;;;;2.80;1.90;;;;;;;12.21;88.32;96109.13;4328120;32;20219;-62
2022/10/09 08:07:45;;;;;;;1.67;1.57;;;;;;;12.04;88.09;96108.78;4332707;32;20190;-62
2022/10/09 08:10:11;;;;;;;2.33;2.23;;;;;;;11.92;89.07;96108.38;4343383;32;20207;-62
2022/10/09 08:12:37;;;;;;;1.30;1.30;;;;;;;11.86;89.59;96106.81;4327735;32;20228;-61
2022/10/09 08:15:03;;;;;;;1.63;1.07;;;;;;;11.88;89.64;96104.69;4314776;33;20190;-62
2022/10/09 08:17:30;;;;;;;0.97;0.97;;;;;;;11.80;90.10;96103.44;4320721;32;20264;-62
2022/10/09 08:19:57;;;;;;;1.17;1.17;;;;;;;11.87;90.03;96103.88;4313843;33;20196;-62
2022/10/09 08:22:24;;;;;;;12.13;1.50;;;;;;;11.99;90.03;96106.19;4318817;32;20193;-62
2022/10/09 08:24:51;;;;;;;4.50;1.20;;;;;;;12.06;89.77;96106.59;4347836;32;20186;-62
2022/10/09 08:27:18;;;;;;;1.67;1.57;;;;;;;11.95;90.24;96097.16;4319539;32;20225;-62
2022/10/09 08:29:51;;;;;;;1.77;1.67;;;;;;;12.01;90.41;96098.72;4304774;32;20216;-62
2022/10/09 08:32:18;;;;;;;1.40;1.30;;;;;;;12.03;90.29;96101.88;4328617;32;20204;-62
2022/10/09 08:34:43;;;;;;;2.17;2.07;;;;;;;12.03;90.11;96097.34;4326491;33;20209;-62
2022/10/09 08:37:08;;;;;;;1.10;1.10;;;;;;;11.90;90.92;96102.53;4303164;32;20273;-63
2022/10/09 08:39:35;;;;;;;1.67;1.57;;;;;;;12.05;90.46;96094.41;4323700;33;20182;-62
2022/10/09 08:42:02;;;;;;;2.37;1.67;;;;;;;11.99;90.54;96092.88;4312605;32;20248;-62
2022/10/09 08:44:37;;;;;;;3.90;1.47;;;;;;;12.03;90.75;96092.03;4277214;33;20293;-62
2022/10/09 08:47:20;;;;;;;1.60;1.50;;;;;;;12.00;91.02;96089.16;4314137;33;20231;-62
2022/10/09 08:50:15;;;;;;;2.20;1.83;;;;;;;12.11;91.01;96092.47;4306685;32;20203;-62
2022/10/09 08:52:47;;;;;;;3.40;3.10;;;;;;;12.21;91.10;96092.38;4309998;33;20190;-62
2022/10/09 08:55:36;;;;;;;2.00;1.90;;;;;;;12.25;90.80;96086.19;4300682;33;20237;-61
2022/10/09 08:58:14;;;;;;;3.63;2.90;;;;;;;12.41;90.45;96083.34;4317569;33;20204;-62
2022/10/09 09:01:09;;;;;;;1.43;1.43;;;;;;;12.49;90.21;96077.38;4314430;33;20217;-62
2022/10/09 09:03:54;;;;;;;9.47;2.30;;;;;;;12.49;90.28;96064.06;4314762;32;20199;-62
2022/10/09 09:06:40;;;;;;;2.20;2.07;;;;;;;12.60;90.45;96070.84;4309110;33;20186;-62
2022/10/09 09:09:27;;;;;;;2.00;1.90;;;;;;;12.67;89.98;96068.63;4336728;32;20239;-62
2022/10/09 09:12:23;;;;;;;1.50;1.40;;;;;;;12.69;89.29;96066.44;4354974;32;20213;-62
2022/10/09 09:15:16;;;;;;;2.90;2.70;;;;;;;12.78;89.16;96058.63;4293476;32;20565;-62
2022/10/09 09:18:27;;;;;;;2.40;2.30;;;;;;;12.71;89.16;96057.09;4342454;32;20232;-62
2022/10/09 09:21:01;;;;;;;2.17;2.07;;;;;;;12.73;89.75;96051.47;4332352;32;20189;-61
2022/10/09 09:23:35;;;;;;;3.63;3.23;;;;;;;12.71;89.89;96048.31;4331931;32;20196;-62
2022/10/09 09:26:02;;;;;;;6.23;2.13;;;;;;;12.69;90.07;96058.47;4338197;32;20315;-62
2022/10/09 09:28:33;;;;;;;2.33;2.20;;;;;;;12.80;89.72;96046.59;4357778;32;20295;-61
2022/10/09 09:31:10;;;;;;;3.60;2.27;;;;;;;12.76;89.75;96045.59;4326735;32;20389;-48
2022/10/09 09:33:54;;;;;;;2.27;2.17;;;;;;;13.03;93.00;96051.03;4325226;32;20222;-49
2022/10/09 09:36:45;;;;;;;1.70;1.63;;;;;;;12.60;92.28;96041.56;4345811;32;20185;-52
2022/10/09 09:39:12;;;;;;;1.00;1.00;;;;;;;12.71;89.31;96053.63;4340587;32;20200;-52
2022/10/09 09:41:42;;;;;;;1.97;1.90;;;;;;;12.43;89.01;96051.91;4319026;32;20246;-50
2022/10/09 09:44:11;;;;;;;1.17;1.17;;;;;;;12.17;89.89;96057.56;4325023;32;20255;-51
2022/10/09 09:46:40;;;;;;;1.87;1.80;;;;;;;12.04;90.47;96056.41;4323103;32;20193;-52
2022/10/09 09:49:18;;;;;;;1.27;1.27;;;;;;;12.12;90.95;96057.59;4318713;32;20244;-52
2022/10/09 09:51:45;;;;;;;2.63;2.43;;;;;;;12.31;91.15;96044.34;4307344;32;20182;-50
2022/10/09 09:54:26;;;;;;;2.17;2.07;;;;;;;12.45;90.96;96045.25;4304911;32;20224;-49
2022/10/09 09:56:55;;;;;;;1.60;1.50;;;;;;;12.57;90.45;96034.94;4351141;32;20266;-49
2022/10/09 09:59:42;;;;;;;1.63;1.63;;;;;;;12.44;90.37;96037.53;4340288;32;20249;-49
2022/10/09 10:02:21;;;;;;;3.13;2.27;;;;;;;12.52;89.97;96029.69;4344746;32;20184;-51
2022/10/09 10:04:56;;;;;;;1.80;1.80;;;;;;;12.56;90.44;96029.91;4327632;32;20276;-50
2022/10/09 10:07:39;;;;;;;1.87;1.70;;;;;;;12.58;90.48;96028.53;4307966;33;20220;-53
2022/10/09 10:10:08;;;;;;;3.00;1.87;;;;;;;12.65;90.30;96028.19;4358979;32;20204;-51
2022/10/09 10:12:47;;;;;;;1.83;1.73;;;;;;;12.56;90.37;96027.25;4351927;32;20185;-50
2022/10/09 10:15:33;;;;;;;2.07;1.97;;;;;;;12.69;90.30;96023.84;4343572;32;20236;-53
2022/10/09 10:18:04;;;;;;;1.77;1.67;;;;;;;12.67;90.14;96020.72;4337790;32;20201;-51
2022/10/09 10:21:00;;;;;;;2.67;2.47;;;;;;;12.90;90.00;96013.69;4318664;32;20189;-62
2022/10/09 10:23:56;;;;;;;1.13;1.13;;;;;;;13.08;87.92;96011.00;4356235;32;20204;-62
2022/10/09 10:26:54;;;;;;;1.77;1.77;;;;;;;13.23;86.57;96012.66;4338675;32;20217;-62
2022/10/09 10:29:30;;;;;;;1.03;1.00;;;;;;;13.26;86.53;96011.28;4307288;32;20202;-62
2022/10/09 10:32:03;;;;;;;1.30;1.20;;;;;;;13.30;86.96;96007.72;4309439;32;20193;-62
2022/10/09 10:34:39;;;;;;;1.23;1.23;;;;;;;13.24;85.95;96002.78;4330935;32;20185;-62
2022/10/09 10:37:13;;;;;;;1.80;1.70;;;;;;;13.29;86.18;96002.69;4330969;32;20203;-62
2022/10/09 10:40:06;;;;;;;1.97;1.87;;;;;;;13.29;85.83;96003.50;4345705;32;20184;-62
2022/10/09 10:42:55;;;;;;;1.53;1.43;;;;;;;13.37;86.05;95996.69;4350958;32;20189;-62
2022/10/09 10:45:32;;;;;;;1.17;1.10;;;;;;;13.46;85.57;96002.91;4357802;32;20215;-62
2022/10/09 10:48:00;;;;;;;1.13;1.13;;;;;;;13.50;85.22;95990.59;4333830;32;20243;-62
2022/10/09 10:50:35;;;;;;;1.37;1.27;;;;;;;13.65;84.09;96000.16;4324561;32;20216;-62
2022/10/09 10:53:14;;;;;;;1.80;1.67;;;;;;;13.61;84.12;95991.97;4343383;32;20279;-62
2022/10/09 10:56:04;;;;;;;1.40;1.30;;;;;;;13.70;84.15;95994.75;4324824;32;20189;-63
2022/10/09 10:59:00;;;;;;;1.13;1.03;;;;;;;13.69;83.21;95990.50;4352679;32;20268;-62
2022/10/09 11:01:37;;;;;;;1.57;1.47;;;;;;;13.64;83.63;95986.06;4339140;32;20185;-62
2022/10/09 11:04:42;;;;;;;3.40;1.43;;;;;;;13.58;84.31;95987.22;4325352;32;20268;-62
2022/10/09 11:07:41;;;;;;;1.23;1.20;;;;;;;13.62;84.39;95980.22;4347253;32;20176;-64
2022/10/09 11:10:29;;;;;;;3.43;2.13;;;;;;;13.73;83.77;95981.59;4297957;33;20238;-62
2022/10/09 11:13:22;;;;;;;1.00;1.00;;;;;;;13.62;83.96;95977.56;4321610;32;20273;-62
2022/10/09 11:16:32;;;;;;;0.87;0.87;;;;;;;13.74;83.94;95985.06;4337787;32;20225;-62
2022/10/09 11:19:20;;;;;;;1.07;1.03;;;;;;;13.70;83.61;95971.53;4345286;32;20272;-62
2022/10/09 11:22:04;;;;;;;1.90;1.80;;;;;;;13.86;83.38;95980.03;4344742;32;20181;-62
2022/10/09 11:25:11;;;;;;;0.80;0.80;;;;;;;13.92;83.15;95970.06;4345060;32;20224;-61
2022/10/09 11:28:23;;;;;;;0.80;0.80;;;;;;;13.97;82.43;95961.91;4277884;33;20209;-62
2022/10/09 11:31:12;;;;;;;1.47;1.47;;;;;;;13.93;81.97;95964.38;4305208;32;20201;-62
2022/10/09 11:33:45;;;;;;;3.57;2.17;;;;;;;13.98;82.70;95964.28;4314495;32;20236;-63
2022/10/09 11:36:40;;;;;;;1.30;1.30;;;;;;;13.99;82.37;95962.41;4320739;33;20201;-62
2022/10/09 11:39:19;;;;;;;3.70;1.43;;;;;;;13.99;82.12;95965.09;4328467;32;20208;-62
2022/10/09 11:41:48;;;;;;;2.20;1.33;;;;;;;13.97;82.09;95960.03;4309926;32;20190;-62
2022/10/09 11:44:13;;;;;;;1.53;1.43;;;;;;;14.01;81.94;95957.56;4331899;32;20251;-62
2022/10/09 11:47:04;;;;;;;1.47;1.47;;;;;;;14.03;81.90;95956.19;4316417;32;20200;-63
2022/10/09 11:49:39;;;;;;;1.73;1.63;;;;;;;14.04;82.32;95947.09;4326248;32;20259;-62
2022/10/09 11:52:23;;;;;;;1.00;1.00;;;;;;;13.96;82.74;95934.47;4329522;32;20189;-62
2022/10/09 11:54:48;;;;;;;0.50;0.50;;;;;;;14.02;82.54;95932.47;4312216;33;20205;-62
2022/10/09 11:57:14;;;;;;;1.50;1.50;;;;;;;14.13;82.19;95930.41;4291640;32;20283;-62